sensor_id;sensor_type;location;lat;lon;timestamp;pressure;altitude;pressure_sealevel;temperature;humidity
69187;BME280;56301;56.864;60.554;2023-07-28T00:00:31;97488.50;;;24.15;56.43
69187;BME280;56301;56.864;60.554;2023-07-28T00:02:53;97483.09;;;24.15;56.93
69187;BME280;56301;56.864;60.554;2023-07-28T00:05:16;97490.75;;;24.31;56.49
69187;BME280;56301;56.864;60.554;2023-07-28T00:07:38;97496.34;;;24.43;58.01
69187;BME280;56301;56.864;60.554;2023-07-28T00:10:01;97500.91;;;24.49;57.24
69187;BME280;56301;56.864;60.554;2023-07-28T00:12:23;97508.34;;;24.67;56.89
69187;BME280;56301;56.864;60.554;2023-07-28T00:14:46;97505.41;;;24.75;56.61
69187;BME280;56301;56.864;60.554;2023-07-28T00:17:08;97494.56;;;24.82;56.43
69187;BME280;56301;56.864;60.554;2023-07-28T00:19:31;97503.25;;;24.90;55.77
69187;BME280;56301;56.864;60.554;2023-07-28T00:21:53;97498.66;;;24.91;55.56
69187;BME280;56301;56.864;60.554;2023-07-28T00:24:16;97496.56;;;24.93;55.83
69187;BME280;56301;56.864;60.554;2023-07-28T00:26:39;97491.16;;;24.93;55.55
69187;BME280;56301;56.864;60.554;2023-07-28T00:29:01;97505.09;;;24.96;56.11
69187;BME280;56301;56.864;60.554;2023-07-28T00:31:25;97495.72;;;24.99;55.29
69187;BME280;56301;56.864;60.554;2023-07-28T00:33:49;97495.72;;;24.99;55.39
69187;BME280;56301;56.864;60.554;2023-07-28T00:36:11;97496.31;;;25.01;55.18
69187;BME280;56301;56.864;60.554;2023-07-28T00:38:34;97497.38;;;25.00;56.02
69187;BME280;56301;56.864;60.554;2023-07-28T00:40:56;97499.03;;;25.01;55.46
69187;BME280;56301;56.864;60.554;2023-07-28T00:43:21;97497.78;;;25.04;55.35
69187;BME280;56301;56.864;60.554;2023-07-28T00:45:43;97509.44;;;25.04;55.26
69187;BME280;56301;56.864;60.554;2023-07-28T00:48:07;97497.53;;;25.05;55.42
69187;BME280;56301;56.864;60.554;2023-07-28T00:50:32;97508.38;;;25.05;55.35
69187;BME280;56301;56.864;60.554;2023-07-28T00:52:56;97501.09;;;25.06;55.24
69187;BME280;56301;56.864;60.554;2023-07-28T00:55:18;97504.41;;;25.08;55.08
69187;BME280;56301;56.864;60.554;2023-07-28T00:57:41;97509.00;;;25.07;55.19
69187;BME280;56301;56.864;60.554;2023-07-28T01:00:03;97508.47;;;24.92;55.23
69187;BME280;56301;56.864;60.554;2023-07-28T01:02:26;97511.72;;;24.29;54.92
69187;BME280;56301;56.864;60.554;2023-07-28T01:04:49;97517.78;;;24.24;56.51
69187;BME280;56301;56.864;60.554;2023-07-28T01:09:36;97513.84;;;24.20;57.78
69187;BME280;56301;56.864;60.554;2023-07-28T01:12:03;97508.59;;;24.39;57.81
69187;BME280;56301;56.864;60.554;2023-07-28T01:14:29;97502.56;;;24.50;58.20
69187;BME280;56301;56.864;60.554;2023-07-28T01:16:51;97510.84;;;24.62;57.24
69187;BME280;56301;56.864;60.554;2023-07-28T01:19:16;97518.09;;;24.74;57.22
69187;BME280;56301;56.864;60.554;2023-07-28T01:21:39;97514.94;;;24.84;56.91
69187;BME280;56301;56.864;60.554;2023-07-28T01:26:42;97520.94;;;24.93;56.46
69187;BME280;56301;56.864;60.554;2023-07-28T01:29:05;97514.03;;;24.97;56.19
69187;BME280;56301;56.864;60.554;2023-07-28T01:31:28;97513.22;;;24.96;56.50
69187;BME280;56301;56.864;60.554;2023-07-28T01:33:51;97507.97;;;25.02;55.61
69187;BME280;56301;56.864;60.554;2023-07-28T01:36:13;97514.25;;;25.02;56.00
69187;BME280;56301;56.864;60.554;2023-07-28T01:38:36;97512.38;;;25.03;56.18
69187;BME280;56301;56.864;60.554;2023-07-28T01:40:59;97514.84;;;25.04;55.74
69187;BME280;56301;56.864;60.554;2023-07-28T01:43:21;97513.78;;;25.05;55.84
69187;BME280;56301;56.864;60.554;2023-07-28T01:45:44;97503.81;;;25.06;56.02
69187;BME280;56301;56.864;60.554;2023-07-28T01:48:06;97510.66;;;25.08;55.89
69187;BME280;56301;56.864;60.554;2023-07-28T01:50:29;97510.88;;;25.07;55.80
69187;BME280;56301;56.864;60.554;2023-07-28T01:52:51;97496.28;;;25.08;55.89
69187;BME280;56301;56.864;60.554;2023-07-28T01:55:14;97506.06;;;25.09;55.74
69187;BME280;56301;56.864;60.554;2023-07-28T01:57:38;97507.94;;;25.08;56.00
69187;BME280;56301;56.864;60.554;2023-07-28T02:00:01;97505.91;;;25.10;56.03
69187;BME280;56301;56.864;60.554;2023-07-28T02:02:23;97503.19;;;25.10;55.98
69187;BME280;56301;56.864;60.554;2023-07-28T02:04:46;97508.38;;;25.12;56.19
69187;BME280;56301;56.864;60.554;2023-07-28T02:07:08;97509.44;;;25.11;55.92
69187;BME280;56301;56.864;60.554;2023-07-28T02:09:31;97515.88;;;25.10;55.68
69187;BME280;56301;56.864;60.554;2023-07-28T02:11:53;97504.84;;;25.11;55.74
69187;BME280;56301;56.864;60.554;2023-07-28T02:14:16;97509.63;;;25.09;55.52
69187;BME280;56301;56.864;60.554;2023-07-28T02:16:38;97506.91;;;25.09;56.20
69187;BME280;56301;56.864;60.554;2023-07-28T02:19:01;97510.66;;;25.08;55.69
69187;BME280;56301;56.864;60.554;2023-07-28T02:21:23;97515.03;;;25.09;56.42
69187;BME280;56301;56.864;60.554;2023-07-28T02:23:46;97522.13;;;25.10;55.66
69187;BME280;56301;56.864;60.554;2023-07-28T02:26:08;97520.25;;;25.11;55.61
69187;BME280;56301;56.864;60.554;2023-07-28T02:28:31;97527.53;;;25.10;55.53
69187;BME280;56301;56.864;60.554;2023-07-28T02:30:53;97544.09;;;24.76;54.87
69187;BME280;56301;56.864;60.554;2023-07-28T02:33:16;97540.03;;;24.13;55.75
69187;BME280;56301;56.864;60.554;2023-07-28T02:35:38;97532.56;;;24.09;57.10
69187;BME280;56301;56.864;60.554;2023-07-28T02:38:01;97542.97;;;24.12;57.21
69187;BME280;56301;56.864;60.554;2023-07-28T02:40:23;97538.81;;;24.16;58.26
69187;BME280;56301;56.864;60.554;2023-07-28T02:42:45;97539.81;;;24.35;58.75
69187;BME280;56301;56.864;60.554;2023-07-28T02:45:08;97537.13;;;24.48;58.62
69187;BME280;56301;56.864;60.554;2023-07-28T02:47:31;97544.97;;;24.63;58.33
69187;BME280;56301;56.864;60.554;2023-07-28T02:49:54;97534.50;;;24.80;56.88
69187;BME280;56301;56.864;60.554;2023-07-28T02:52:17;97545.31;;;24.86;57.20
69187;BME280;56301;56.864;60.554;2023-07-28T02:54:39;97539.88;;;24.93;56.93
69187;BME280;56301;56.864;60.554;2023-07-28T02:57:02;97535.09;;;24.95;56.68
69187;BME280;56301;56.864;60.554;2023-07-28T02:59:25;97537.34;;;24.98;56.76
69187;BME280;56301;56.864;60.554;2023-07-28T03:01:48;97530.91;;;24.99;56.68
69187;BME280;56301;56.864;60.554;2023-07-28T03:04:10;97529.03;;;25.00;56.08
69187;BME280;56301;56.864;60.554;2023-07-28T03:06:53;97534.84;;;25.03;57.02
69187;BME280;56301;56.864;60.554;2023-07-28T03:09:16;97544.59;;;25.04;56.36
69187;BME280;56301;56.864;60.554;2023-07-28T03:11:48;97536.06;;;25.07;57.12
69187;BME280;56301;56.864;60.554;2023-07-28T03:14:11;97545.44;;;25.11;56.49
69187;BME280;56301;56.864;60.554;2023-07-28T03:16:33;97546.06;;;25.13;56.54
69187;BME280;56301;56.864;60.554;2023-07-28T03:18:56;97544.38;;;25.12;56.39
69187;BME280;56301;56.864;60.554;2023-07-28T03:21:18;97557.91;;;25.12;56.94
69187;BME280;56301;56.864;60.554;2023-07-28T03:23:41;97566.03;;;25.12;57.06
69187;BME280;56301;56.864;60.554;2023-07-28T03:26:03;97566.03;;;25.12;56.34
69187;BME280;56301;56.864;60.554;2023-07-28T03:28:26;97576.88;;;25.12;56.18
69187;BME280;56301;56.864;60.554;2023-07-28T03:30:48;97566.03;;;25.12;56.36
69187;BME280;56301;56.864;60.554;2023-07-28T03:33:11;97570.63;;;25.12;56.69
69187;BME280;56301;56.864;60.554;2023-07-28T03:35:33;97576.88;;;25.12;56.28
69187;BME280;56301;56.864;60.554;2023-07-28T03:38:02;97582.28;;;25.12;57.09
69187;BME280;56301;56.864;60.554;2023-07-28T03:40:24;97576.88;;;25.12;56.56
69187;BME280;56301;56.864;60.554;2023-07-28T03:42:49;97577.91;;;25.11;56.08
69187;BME280;56301;56.864;60.554;2023-07-28T03:45:12;97584.16;;;25.12;55.92
69187;BME280;56301;56.864;60.554;2023-07-28T03:47:34;97583.97;;;25.13;55.38
69187;BME280;56301;56.864;60.554;2023-07-28T03:49:57;97587.69;;;25.12;56.14
69187;BME280;56301;56.864;60.554;2023-07-28T03:52:19;97587.69;;;25.12;55.15
69187;BME280;56301;56.864;60.554;2023-07-28T03:54:42;97583.97;;;25.13;55.80
69187;BME280;56301;56.864;60.554;2023-07-28T03:57:04;97576.88;;;25.12;55.02
69187;BME280;56301;56.864;60.554;2023-07-28T03:59:27;97576.88;;;25.12;54.91
69187;BME280;56301;56.864;60.554;2023-07-28T04:01:49;97572.31;;;25.13;54.94
69187;BME280;56301;56.864;60.554;2023-07-28T04:04:12;97573.97;;;25.14;55.71
69187;BME280;56301;56.864;60.554;2023-07-28T04:06:44;97566.03;;;25.12;55.05
69187;BME280;56301;56.864;60.554;2023-07-28T04:09:07;97570.44;;;25.13;55.07
69187;BME280;56301;56.864;60.554;2023-07-28T04:11:29;97564.78;;;25.15;56.09
69187;BME280;56301;56.864;60.554;2023-07-28T04:13:52;97571.84;;;25.16;55.60
69187;BME280;56301;56.864;60.554;2023-07-28T04:16:14;97569.38;;;25.14;54.99
69187;BME280;56301;56.864;60.554;2023-07-28T04:18:37;97571.84;;;25.16;54.99
69187;BME280;56301;56.864;60.554;2023-07-28T04:20:59;97567.28;;;25.16;55.71
69187;BME280;56301;56.864;60.554;2023-07-28T04:23:22;97576.50;;;24.95;54.57
69187;BME280;56301;56.864;60.554;2023-07-28T04:25:44;97572.28;;;24.15;54.95
69187;BME280;56301;56.864;60.554;2023-07-28T04:28:07;97574.56;;;24.05;57.45
69187;BME280;56301;56.864;60.554;2023-07-28T04:30:29;97575.81;;;24.02;57.90
69187;BME280;56301;56.864;60.554;2023-07-28T04:32:52;97578.72;;;24.20;59.21
69187;BME280;56301;56.864;60.554;2023-07-28T04:35:17;97584.53;;;24.37;58.51
69187;BME280;56301;56.864;60.554;2023-07-28T04:38:00;97579.09;;;24.57;57.37
69187;BME280;56301;56.864;60.554;2023-07-28T04:40:35;97583.66;;;24.70;57.16
69187;BME280;56301;56.864;60.554;2023-07-28T04:42:58;97590.06;;;24.82;55.95
69187;BME280;56301;56.864;60.554;2023-07-28T04:45:21;97585.44;;;24.96;55.69
69187;BME280;56301;56.864;60.554;2023-07-28T04:47:43;97590.03;;;24.95;56.95
69187;BME280;56301;56.864;60.554;2023-07-28T04:50:06;97577.72;;;25.00;56.10
69187;BME280;56301;56.864;60.554;2023-07-28T04:53:07;97574.81;;;25.01;56.72
69187;BME280;56301;56.864;60.554;2023-07-28T04:55:51;97585.19;;;25.04;56.50
69187;BME280;56301;56.864;60.554;2023-07-28T04:58:14;97595.59;;;25.07;56.32
69187;BME280;56301;56.864;60.554;2023-07-28T05:00:45;97604.34;;;25.09;55.80
69187;BME280;56301;56.864;60.554;2023-07-28T05:03:08;97597.06;;;25.10;56.59
69187;BME280;56301;56.864;60.554;2023-07-28T05:05:34;97591.44;;;25.11;56.18
69187;BME280;56301;56.864;60.554;2023-07-28T05:07:59;97596.66;;;25.13;56.56
69187;BME280;56301;56.864;60.554;2023-07-28T05:10:22;97599.56;;;25.11;55.87
69187;BME280;56301;56.864;60.554;2023-07-28T05:12:44;97603.94;;;25.12;56.72
69187;BME280;56301;56.864;60.554;2023-07-28T05:15:07;97600.81;;;25.15;56.45
69187;BME280;56301;56.864;60.554;2023-07-28T05:17:32;97602.25;;;25.18;56.63
69187;BME280;56301;56.864;60.554;2023-07-28T05:20:27;97598.72;;;25.17;55.60
69187;BME280;56301;56.864;60.554;2023-07-28T05:23:01;97606.03;;;25.17;56.85
69187;BME280;56301;56.864;60.554;2023-07-28T05:25:26;97599.78;;;25.16;56.56
69187;BME280;56301;56.864;60.554;2023-07-28T05:27:48;97608.28;;;25.20;56.00
69187;BME280;56301;56.864;60.554;2023-07-28T05:30:11;97610.16;;;25.19;55.80
69187;BME280;56301;56.864;60.554;2023-07-28T05:32:34;97615.56;;;25.19;56.18
69187;BME280;56301;56.864;60.554;2023-07-28T05:35:06;97606.41;;;25.20;56.12
69187;BME280;56301;56.864;60.554;2023-07-28T05:37:29;97604.91;;;24.53;55.76
69187;BME280;56301;56.864;60.554;2023-07-28T05:39:51;97609.47;;;24.06;55.78
69187;BME280;56301;56.864;60.554;2023-07-28T05:42:15;97598.88;;;24.11;57.46
69187;BME280;56301;56.864;60.554;2023-07-28T05:44:38;97601.16;;;24.34;57.48
69187;BME280;56301;56.864;60.554;2023-07-28T05:47:00;97602.22;;;24.33;58.46
69187;BME280;56301;56.864;60.554;2023-07-28T05:49:23;97594.94;;;24.34;58.24
69187;BME280;56301;56.864;60.554;2023-07-28T05:51:46;97595.94;;;24.33;58.29
69187;BME280;56301;56.864;60.554;2023-07-28T05:54:11;97593.06;;;23.94;56.73
69187;BME280;56301;56.864;60.554;2023-07-28T05:56:34;97589.31;;;23.82;55.88
69187;BME280;56301;56.864;60.554;2023-07-28T05:58:56;97599.06;;;23.83;55.55
69187;BME280;56301;56.864;60.554;2023-07-28T06:01:18;97591.59;;;23.98;56.06
69187;BME280;56301;56.864;60.554;2023-07-28T06:04:07;97598.44;;;24.14;56.97
69187;BME280;56301;56.864;60.554;2023-07-28T06:06:36;97587.88;;;24.26;57.67
69187;BME280;56301;56.864;60.554;2023-07-28T06:08:59;97595.75;;;24.27;58.18
69187;BME280;56301;56.864;60.554;2023-07-28T06:11:21;97581.59;;;24.32;58.36
69187;BME280;56301;56.864;60.554;2023-07-28T06:13:44;97598.47;;;24.34;58.10
69187;BME280;56301;56.864;60.554;2023-07-28T06:16:07;97582.44;;;24.33;58.11
69187;BME280;56301;56.864;60.554;2023-07-28T06:18:29;97574.53;;;24.24;58.54
69187;BME280;56301;56.864;60.554;2023-07-28T06:21:02;97591.81;;;24.37;58.83
69187;BME280;56301;56.864;60.554;2023-07-28T06:23:24;97590.75;;;24.38;59.34
69187;BME280;56301;56.864;60.554;2023-07-28T06:25:47;97596.34;;;24.36;58.40
69187;BME280;56301;56.864;60.554;2023-07-28T06:28:10;97587.00;;;24.39;59.13
69187;BME280;56301;56.864;60.554;2023-07-28T06:30:32;97596.81;;;24.40;59.94
69187;BME280;56301;56.864;60.554;2023-07-28T06:32:55;97599.91;;;24.50;59.07
69187;BME280;56301;56.864;60.554;2023-07-28T06:35:17;97601.19;;;24.41;60.25
69187;BME280;56301;56.864;60.554;2023-07-28T06:37:40;97602.00;;;24.48;59.76
69187;BME280;56301;56.864;60.554;2023-07-28T06:40:04;97607.19;;;24.56;59.77
69187;BME280;56301;56.864;60.554;2023-07-28T06:42:27;97605.09;;;24.65;57.82
69187;BME280;56301;56.864;60.554;2023-07-28T06:44:52;97603.63;;;24.69;58.26
69187;BME280;56301;56.864;60.554;2023-07-28T06:47:15;97602.38;;;24.71;59.49
69187;BME280;56301;56.864;60.554;2023-07-28T06:49:37;97611.13;;;24.73;58.74
69187;BME280;56301;56.864;60.554;2023-07-28T06:52:00;97618.41;;;24.73;60.42
69187;BME280;56301;56.864;60.554;2023-07-28T06:54:22;97614.84;;;24.72;59.38
69187;BME280;56301;56.864;60.554;2023-07-28T06:56:45;97615.31;;;24.63;60.49
69187;BME280;56301;56.864;60.554;2023-07-28T06:59:09;97625.06;;;24.64;60.70
69187;BME280;56301;56.864;60.554;2023-07-28T07:01:31;97630.28;;;24.59;60.34
69187;BME280;56301;56.864;60.554;2023-07-28T07:03:54;97629.66;;;24.63;60.58
69187;BME280;56301;56.864;60.554;2023-07-28T07:06:16;97627.38;;;24.60;58.97
69187;BME280;56301;56.864;60.554;2023-07-28T07:08:39;97626.13;;;24.43;59.87
69187;BME280;56301;56.864;60.554;2023-07-28T07:11:01;97635.28;;;24.15;58.31
69187;BME280;56301;56.864;60.554;2023-07-28T07:13:24;97622.56;;;24.09;58.42
69187;BME280;56301;56.864;60.554;2023-07-28T07:15:47;97628.59;;;24.05;57.83
69187;BME280;56301;56.864;60.554;2023-07-28T07:18:09;97639.81;;;23.95;57.85
69187;BME280;56301;56.864;60.554;2023-07-28T07:20:34;97646.47;;;23.99;57.41
69187;BME280;56301;56.864;60.554;2023-07-28T07:22:56;97643.78;;;24.06;58.09
69187;BME280;56301;56.864;60.554;2023-07-28T07:25:18;97653.97;;;24.10;58.17
69187;BME280;56301;56.864;60.554;2023-07-28T07:27:41;97648.97;;;24.00;57.72
69187;BME280;56301;56.864;60.554;2023-07-28T07:30:03;97660.63;;;24.08;58.46
69187;BME280;56301;56.864;60.554;2023-07-28T07:32:26;97648.41;;;24.45;59.11
69187;BME280;56301;56.864;60.554;2023-07-28T07:34:48;97652.13;;;24.70;57.38
69187;BME280;56301;56.864;60.554;2023-07-28T07:37:11;97650.66;;;24.74;59.27
69187;BME280;56301;56.864;60.554;2023-07-28T07:39:33;97651.88;;;24.79;59.46
69187;BME280;56301;56.864;60.554;2023-07-28T07:41:56;97650.63;;;24.88;57.80
69187;BME280;56301;56.864;60.554;2023-07-28T07:44:19;97649.75;;;24.94;57.85
69187;BME280;56301;56.864;60.554;2023-07-28T07:46:41;97645.16;;;25.01;58.81
69187;BME280;56301;56.864;60.554;2023-07-28T07:49:03;97651.81;;;25.05;59.06
69187;BME280;56301;56.864;60.554;2023-07-28T07:51:26;97642.66;;;25.06;58.23
69187;BME280;56301;56.864;60.554;2023-07-28T07:53:48;97637.28;;;25.13;58.30
69187;BME280;56301;56.864;60.554;2023-07-28T07:56:11;97642.22;;;25.23;58.33
69187;BME280;56301;56.864;60.554;2023-07-28T07:58:33;97641.63;;;25.20;59.67
69187;BME280;56301;56.864;60.554;2023-07-28T08:00:56;97627.38;;;24.60;58.76
69187;BME280;56301;56.864;60.554;2023-07-28T08:03:18;97632.13;;;24.32;57.65
69187;BME280;56301;56.864;60.554;2023-07-28T08:05:41;97636.28;;;24.14;56.46
69187;BME280;56301;56.864;60.554;2023-07-28T08:08:03;97623.19;;;23.98;55.33
69187;BME280;56301;56.864;60.554;2023-07-28T08:10:26;97633.78;;;23.93;54.74
69187;BME280;56301;56.864;60.554;2023-07-28T08:12:48;97638.34;;;23.99;53.75
69187;BME280;56301;56.864;60.554;2023-07-28T08:15:11;97644.16;;;23.96;53.12
69187;BME280;56301;56.864;60.554;2023-07-28T08:17:33;97625.25;;;23.96;52.59
69187;BME280;56301;56.864;60.554;2023-07-28T08:19:56;97627.13;;;23.95;51.69
69187;BME280;56301;56.864;60.554;2023-07-28T08:22:18;97622.34;;;23.91;51.47
69187;BME280;56301;56.864;60.554;2023-07-28T08:24:41;97622.75;;;23.81;51.83
69187;BME280;56301;56.864;60.554;2023-07-28T08:27:03;97640.19;;;23.85;51.17
69187;BME280;56301;56.864;60.554;2023-07-28T08:29:26;97625.47;;;23.88;50.50
69187;BME280;56301;56.864;60.554;2023-07-28T08:31:48;97634.00;;;23.91;50.42
69187;BME280;56301;56.864;60.554;2023-07-28T08:34:11;97628.38;;;23.93;50.06
69187;BME280;56301;56.864;60.554;2023-07-28T08:36:34;97614.28;;;24.04;49.56
69187;BME280;56301;56.864;60.554;2023-07-28T08:38:56;97624.25;;;23.97;49.70
69187;BME280;56301;56.864;60.554;2023-07-28T08:41:19;97626.50;;;24.00;48.91
69187;BME280;56301;56.864;60.554;2023-07-28T08:43:41;97624.66;;;23.94;48.99
69187;BME280;56301;56.864;60.554;2023-07-28T08:46:04;97611.94;;;23.81;49.71
69187;BME280;56301;56.864;60.554;2023-07-28T08:48:26;97604.06;;;23.93;49.76
69187;BME280;56301;56.864;60.554;2023-07-28T08:50:49;97610.09;;;24.01;49.09
69187;BME280;56301;56.864;60.554;2023-07-28T08:53:11;97602.41;;;24.05;49.51
69187;BME280;56301;56.864;60.554;2023-07-28T08:55:34;97615.28;;;24.03;48.90
69187;BME280;56301;56.864;60.554;2023-07-28T08:58:01;97622.38;;;24.04;48.91
69187;BME280;56301;56.864;60.554;2023-07-28T09:00:35;97616.13;;;24.03;48.36
69187;BME280;56301;56.864;60.554;2023-07-28T09:02:58;97614.88;;;24.06;48.76
69187;BME280;56301;56.864;60.554;2023-07-28T09:05:21;97620.28;;;24.06;48.80
69187;BME280;56301;56.864;60.554;2023-07-28T09:07:43;97621.94;;;24.07;48.56
69187;BME280;56301;56.864;60.554;2023-07-28T09:10:06;97622.59;;;24.16;48.51
69187;BME280;56301;56.864;60.554;2023-07-28T09:12:32;97623.81;;;24.07;48.64
69187;BME280;56301;56.864;60.554;2023-07-28T09:14:57;97627.97;;;24.09;48.77
69187;BME280;56301;56.864;60.554;2023-07-28T09:17:19;97611.53;;;24.11;48.58
69187;BME280;56301;56.864;60.554;2023-07-28T09:19:49;97626.94;;;24.17;48.77
69187;BME280;56301;56.864;60.554;2023-07-28T09:22:11;97634.84;;;24.18;48.48
69187;BME280;56301;56.864;60.554;2023-07-28T09:24:35;97623.63;;;24.15;48.54
69187;BME280;56301;56.864;60.554;2023-07-28T09:26:58;97631.94;;;24.13;47.90
69187;BME280;56301;56.864;60.554;2023-07-28T09:29:21;97639.44;;;24.11;48.18
69187;BME280;56301;56.864;60.554;2023-07-28T09:31:44;97634.00;;;24.05;48.36
69187;BME280;56301;56.864;60.554;2023-07-28T09:34:07;97641.06;;;24.06;48.48
69187;BME280;56301;56.864;60.554;2023-07-28T09:36:30;97634.22;;;24.10;48.33
69187;BME280;56301;56.864;60.554;2023-07-28T09:38:52;97638.97;;;23.88;48.38
69187;BME280;56301;56.864;60.554;2023-07-28T09:41:15;97631.50;;;23.90;47.83
69187;BME280;56301;56.864;60.554;2023-07-28T09:43:38;97636.88;;;23.76;48.33
69187;BME280;56301;56.864;60.554;2023-07-28T09:46:03;97643.97;;;23.91;48.16
69187;BME280;56301;56.864;60.554;2023-07-28T09:48:25;97631.91;;;24.00;47.91
69187;BME280;56301;56.864;60.554;2023-07-28T09:50:51;97637.53;;;23.98;48.28
69187;BME280;56301;56.864;60.554;2023-07-28T09:53:14;97635.88;;;24.17;47.33
69187;BME280;56301;56.864;60.554;2023-07-28T09:55:38;97640.88;;;24.00;47.57
69187;BME280;56301;56.864;60.554;2023-07-28T09:58:02;97640.22;;;23.98;48.22
69187;BME280;56301;56.864;60.554;2023-07-28T10:00:25;97637.75;;;23.97;48.07
69187;BME280;56301;56.864;60.554;2023-07-28T10:02:49;97646.84;;;23.89;47.98
69187;BME280;56301;56.864;60.554;2023-07-28T10:05:11;97643.34;;;23.82;47.53
69187;BME280;56301;56.864;60.554;2023-07-28T10:07:34;97630.66;;;23.83;47.25
69187;BME280;56301;56.864;60.554;2023-07-28T10:09:57;97654.72;;;23.77;47.83
69187;BME280;56301;56.864;60.554;2023-07-28T10:12:24;97650.38;;;23.76;47.36
69187;BME280;56301;56.864;60.554;2023-07-28T10:14:46;97653.28;;;23.68;47.14
69187;BME280;56301;56.864;60.554;2023-07-28T10:17:11;97649.75;;;23.68;46.98
69187;BME280;56301;56.864;60.554;2023-07-28T10:19:37;97649.88;;;23.60;46.46
69187;BME280;56301;56.864;60.554;2023-07-28T10:22:10;97655.31;;;23.66;46.30
69187;BME280;56301;56.864;60.554;2023-07-28T10:27:27;97647.19;;;23.66;45.90
69187;BME280;56301;56.864;60.554;2023-07-28T10:29:58;97631.41;;;23.63;46.11
69187;BME280;56301;56.864;60.554;2023-07-28T10:32:27;97644.69;;;23.58;46.17
69187;BME280;56301;56.864;60.554;2023-07-28T10:35:00;97637.00;;;23.55;46.09
69187;BME280;56301;56.864;60.554;2023-07-28T10:37:23;97646.97;;;23.54;45.48
69187;BME280;56301;56.864;60.554;2023-07-28T10:39:45;97646.94;;;23.48;46.06
69187;BME280;56301;56.864;60.554;2023-07-28T10:42:08;97642.34;;;23.42;45.65
69187;BME280;56301;56.864;60.554;2023-07-28T10:44:31;97644.84;;;23.43;45.80
69187;BME280;56301;56.864;60.554;2023-07-28T10:46:53;97634.88;;;23.44;45.71
69187;BME280;56301;56.864;60.554;2023-07-28T10:49:17;97648.38;;;23.44;45.49
69187;BME280;56301;56.864;60.554;2023-07-28T10:51:39;97645.69;;;23.44;45.21
69187;BME280;56301;56.864;60.554;2023-07-28T10:54:02;97643.38;;;23.41;45.53
69187;BME280;56301;56.864;60.554;2023-07-28T10:56:24;97646.28;;;23.39;45.10
69187;BME280;56301;56.864;60.554;2023-07-28T10:58:55;97644.81;;;23.37;44.94
69187;BME280;56301;56.864;60.554;2023-07-28T11:01:17;97636.50;;;23.32;45.21
69187;BME280;56301;56.864;60.554;2023-07-28T11:03:43;97634.22;;;23.28;44.90
69187;BME280;56301;56.864;60.554;2023-07-28T11:06:07;97647.47;;;23.23;44.88
69187;BME280;56301;56.864;60.554;2023-07-28T11:08:30;97633.75;;;23.18;44.76
69187;BME280;56301;56.864;60.554;2023-07-28T11:10:52;97642.25;;;23.15;44.65
69187;BME280;56301;56.864;60.554;2023-07-28T11:13:15;97635.59;;;23.11;44.85
69187;BME280;56301;56.864;60.554;2023-07-28T11:15:37;97640.34;;;23.09;44.86
69187;BME280;56301;56.864;60.554;2023-07-28T11:18:00;97637.47;;;23.11;45.60
69187;BME280;56301;56.864;60.554;2023-07-28T11:20:25;97641.63;;;23.20;46.68
69187;BME280;56301;56.864;60.554;2023-07-28T11:22:52;97651.63;;;23.26;46.93
69187;BME280;56301;56.864;60.554;2023-07-28T11:25:15;97633.56;;;23.26;47.85
69187;BME280;56301;56.864;60.554;2023-07-28T11:27:38;97633.38;;;23.35;48.36
69187;BME280;56301;56.864;60.554;2023-07-28T11:30:00;97628.63;;;23.37;48.72
69187;BME280;56301;56.864;60.554;2023-07-28T11:32:23;97642.13;;;23.37;49.08
69187;BME280;56301;56.864;60.554;2023-07-28T11:34:46;97639.44;;;23.37;49.61
69187;BME280;56301;56.864;60.554;2023-07-28T11:37:10;97635.19;;;23.69;48.79
69187;BME280;56301;56.864;60.554;2023-07-28T11:39:32;97634.19;;;23.83;51.37
69187;BME280;56301;56.864;60.554;2023-07-28T11:41:55;97643.13;;;23.90;52.05
69187;BME280;56301;56.864;60.554;2023-07-28T11:44:17;97640.44;;;23.97;52.68
69187;BME280;56301;56.864;60.554;2023-07-28T11:46:41;97639.81;;;23.95;53.16
69187;BME280;56301;56.864;60.554;2023-07-28T11:49:14;97644.16;;;23.96;53.40
69187;BME280;56301;56.864;60.554;2023-07-28T11:51:40;97637.31;;;23.93;53.78
69187;BME280;56301;56.864;60.554;2023-07-28T11:54:03;97647.09;;;23.94;54.16
69187;BME280;56301;56.864;60.554;2023-07-28T11:56:27;97646.03;;;23.95;54.97
69187;BME280;56301;56.864;60.554;2023-07-28T11:58:51;97649.16;;;23.99;55.07
69187;BME280;56301;56.864;60.554;2023-07-28T12:01:14;97648.53;;;24.03;55.27
69187;BME280;56301;56.864;60.554;2023-07-28T12:03:36;97658.53;;;24.03;54.96
69187;BME280;56301;56.864;60.554;2023-07-28T12:06:04;97658.94;;;24.07;54.89
69187;BME280;56301;56.864;60.554;2023-07-28T12:08:36;97661.47;;;24.08;55.32
69187;BME280;56301;56.864;60.554;2023-07-28T12:10:58;97662.06;;;24.10;54.98
69187;BME280;56301;56.864;60.554;2023-07-28T12:13:21;97658.53;;;24.10;54.82
69187;BME280;56301;56.864;60.554;2023-07-28T12:15:43;97655.19;;;24.14;54.77
69187;BME280;56301;56.864;60.554;2023-07-28T12:20:32;97647.31;;;24.19;54.67
69187;BME280;56301;56.864;60.554;2023-07-28T12:22:55;97649.63;;;24.22;53.98
69187;BME280;56301;56.864;60.554;2023-07-28T12:25:17;97650.88;;;24.26;53.29
69187;BME280;56301;56.864;60.554;2023-07-28T12:27:40;97661.88;;;24.32;53.12
69187;BME280;56301;56.864;60.554;2023-07-28T12:30:02;97659.41;;;24.37;52.30
69187;BME280;56301;56.864;60.554;2023-07-28T12:32:25;97664.38;;;24.40;52.57
69187;BME280;56301;56.864;60.554;2023-07-28T12:34:48;97661.91;;;24.45;52.50
69187;BME280;56301;56.864;60.554;2023-07-28T12:37:11;97667.94;;;24.47;51.85
69187;BME280;56301;56.864;60.554;2023-07-28T12:39:36;97666.06;;;24.54;51.81
69187;BME280;56301;56.864;60.554;2023-07-28T12:41:59;97662.34;;;24.55;51.37